Time;durP1;ratioP1;P1;durP2;ratioP2;P2;SDS_P1;SDS_P2;PMS_P1;PMS_P2;Temp;Humidity;BMP_temperature;BMP_pressure;BME280_temperature;BME280_humidity;BME280_pressure;Samples;Min_cycle;Max_cycle;Signal;HPM_P1;HPM_P2
2021/10/12 00:00:49;;;;;;;31.85;20.35;;;11.40;76.70;;;;;;4960836;28;20028;-67
2021/10/12 00:03:15;;;;;;;35.00;21.25;;;11.40;76.80;;;;;;4956969;28;20514;-67
2021/10/12 00:05:40;;;;;;;32.00;20.70;;;11.30;76.80;;;;;;4960104;28;20033;-67
2021/10/12 00:08:07;;;;;;;31.52;19.77;;;11.30;77.00;;;;;;4960314;28;20127;-67
2021/10/12 00:10:32;;;;;;;33.90;20.23;;;11.30;77.00;;;;;;4950835;28;20491;-66
2021/10/12 00:12:58;;;;;;;30.67;19.08;;;11.30;77.10;;;;;;4954071;28;20085;-67
2021/10/12 00:15:24;;;;;;;30.50;18.98;;;11.20;77.10;;;;;;4954713;28;20066;-66
2021/10/12 00:17:49;;;;;;;30.48;19.13;;;11.30;77.10;;;;;;4952891;28;20064;-66
2021/10/12 00:20:15;;;;;;;33.05;20.02;;;11.30;77.00;;;;;;4958747;28;20027;-67
2021/10/12 00:22:40;;;;;;;29.65;18.52;;;11.30;76.90;;;;;;4954579;28;20623;-67
2021/10/12 00:25:06;;;;;;;32.30;19.58;;;11.40;76.80;;;;;;4953816;28;20045;-67
2021/10/12 00:27:32;;;;;;;31.38;19.48;;;11.30;76.70;;;;;;4954325;28;20552;-67
2021/10/12 00:29:58;;;;;;;32.63;20.67;;;11.30;76.60;;;;;;4956910;28;20174;-67
2021/10/12 00:32:23;;;;;;;33.67;19.98;;;11.30;76.60;;;;;;4957035;28;20114;-66
2021/10/12 00:34:49;;;;;;;31.58;19.02;;;11.30;76.60;;;;;;4955944;28;20042;-67
2021/10/12 00:37:15;;;;;;;30.85;19.88;;;11.30;76.80;;;;;;4956266;28;20043;-67
2021/10/12 00:39:41;;;;;;;31.75;19.55;;;11.20;76.80;;;;;;4956617;28;20169;-67
2021/10/12 00:42:06;;;;;;;30.00;18.80;;;11.10;76.80;;;;;;4961549;28;20035;-67
2021/10/12 00:44:33;;;;;;;32.30;20.13;;;11.10;76.90;;;;;;4953517;28;20038;-67
2021/10/12 00:46:59;;;;;;;33.47;19.77;;;11.10;77.00;;;;;;4954151;28;20035;-67
2021/10/12 00:49:25;;;;;;;31.95;19.30;;;11.10;77.00;;;;;;4958577;28;20591;-67
2021/10/12 00:51:51;;;;;;;30.88;19.27;;;11.00;77.00;;;;;;4952714;28;20046;-67
2021/10/12 00:54:17;;;;;;;35.17;19.65;;;11.00;77.00;;;;;;4956199;28;20045;-66
2021/10/12 00:56:43;;;;;;;32.33;19.80;;;11.00;77.10;;;;;;4957217;28;20603;-67
2021/10/12 00:59:09;;;;;;;33.05;20.20;;;11.00;77.10;;;;;;4954382;28;20046;-66
2021/10/12 01:01:37;;;;;;;34.47;20.42;;;11.00;77.20;;;;;;4953508;28;20035;-67
2021/10/12 01:04:03;;;;;;;30.17;19.30;;;10.90;77.50;;;;;;4955859;28;20053;-67
2021/10/12 01:06:29;;;;;;;28.75;18.38;;;10.90;77.40;;;;;;4971466;28;20031;-67
2021/10/12 01:08:54;;;;;;;31.75;18.77;;;10.90;77.40;;;;;;4953156;28;20745;-67
2021/10/12 01:11:20;;;;;;;30.75;18.58;;;10.90;77.40;;;;;;4954665;28;20042;-67
2021/10/12 01:13:46;;;;;;;30.27;18.95;;;10.90;77.30;;;;;;4955691;28;20031;-67
2021/10/12 01:16:13;;;;;;;30.15;18.95;;;10.90;77.30;;;;;;4954378;28;20043;-67
2021/10/12 01:18:39;;;;;;;30.48;19.15;;;10.90;77.40;;;;;;4957748;28;20031;-67
2021/10/12 01:21:05;;;;;;;30.17;19.38;;;10.90;77.40;;;;;;4956144;28;20082;-67
2021/10/12 01:23:30;;;;;;;29.17;18.05;;;10.90;77.30;;;;;;4955446;28;20034;-66
2021/10/12 01:25:56;;;;;;;31.75;19.30;;;10.90;77.20;;;;;;4955138;28;20074;-67
2021/10/12 01:28:22;;;;;;;28.38;18.17;;;11.00;77.20;;;;;;4954142;28;20046;-66
2021/10/12 01:30:47;;;;;;;30.02;18.60;;;10.90;77.00;;;;;;4955093;28;20042;-66
2021/10/12 01:33:13;;;;;;;30.33;18.85;;;10.90;77.00;;;;;;4957592;28;20046;-66
2021/10/12 01:35:39;;;;;;;30.52;18.70;;;10.90;77.00;;;;;;4956330;28;20027;-67
2021/10/12 01:38:05;;;;;;;30.73;18.83;;;10.90;77.00;;;;;;4960574;28;20473;-66
2021/10/12 01:40:31;;;;;;;32.55;19.30;;;10.90;77.00;;;;;;4954560;28;20039;-67
2021/10/12 01:42:57;;;;;;;32.33;19.08;;;10.90;77.20;;;;;;4952432;28;20082;-67
2021/10/12 01:45:24;;;;;;;30.20;18.17;;;10.90;77.20;;;;;;4953177;28;20526;-66
2021/10/12 01:47:51;;;;;;;31.65;18.80;;;10.80;77.30;;;;;;4956670;28;20432;-66
2021/10/12 01:50:17;;;;;;;30.00;19.05;;;10.80;77.50;;;;;;4956523;28;20054;-66
2021/10/12 01:52:42;;;;;;;30.95;18.77;;;10.70;77.50;;;;;;4953939;28;20051;-67
2021/10/12 01:55:09;;;;;;;29.75;19.20;;;10.80;77.90;;;;;;4953109;28;20397;-66
2021/10/12 01:57:35;;;;;;;29.92;17.85;;;10.70;78.00;;;;;;4951858;28;20047;-65
2021/10/12 02:00:00;;;;;;;30.08;19.35;;;10.70;78.10;;;;;;4954171;28;20086;-67
2021/10/12 02:02:26;;;;;;;30.67;18.85;;;10.70;78.20;;;;;;4954580;28;20577;-67
2021/10/12 02:04:51;;;;;;;28.95;18.48;;;10.70;78.40;;;;;;4954090;28;20696;-66
2021/10/12 02:07:17;;;;;;;30.58;18.77;;;10.70;78.40;;;;;;4955996;28;20046;-67
2021/10/12 02:09:43;;;;;;;31.55;19.05;;;10.70;78.40;;;;;;4951544;28;20497;-67
2021/10/12 02:12:08;;;;;;;31.08;19.23;;;10.60;78.40;;;;;;4953158;28;20090;-67
2021/10/12 02:14:34;;;;;;;29.88;19.05;;;10.70;78.40;;;;;;4954345;28;20031;-66
2021/10/12 02:17:00;;;;;;;32.25;19.77;;;10.70;78.40;;;;;;4953775;28;20051;-66
2021/10/12 02:19:25;;;;;;;33.05;19.30;;;10.70;78.40;;;;;;4958084;28;20058;-66
2021/10/12 02:21:51;;;;;;;31.50;18.88;;;10.60;78.40;;;;;;4955235;28;20651;-67
2021/10/12 02:24:17;;;;;;;30.65;19.08;;;10.60;78.60;;;;;;4958919;28;20031;-66
2021/10/12 02:26:42;;;;;;;31.23;17.98;;;10.60;78.70;;;;;;4952784;28;20129;-67
2021/10/12 02:29:08;;;;;;;30.15;18.65;;;10.60;78.80;;;;;;4956064;28;20046;-67
2021/10/12 02:31:34;;;;;;;29.25;18.58;;;10.60;78.80;;;;;;4951576;28;20046;-66
2021/10/12 02:34:00;;;;;;;30.85;18.02;;;10.60;78.90;;;;;;4952193;28;20043;-67
2021/10/12 02:36:25;;;;;;;32.13;18.83;;;10.60;79.00;;;;;;4953219;28;20047;-67
2021/10/12 02:38:51;;;;;;;29.70;17.80;;;10.60;79.00;;;;;;4953303;28;20035;-66
2021/10/12 02:41:16;;;;;;;26.15;16.05;;;10.60;79.10;;;;;;4954352;28;20085;-64
2021/10/12 02:43:42;;;;;;;30.30;17.42;;;10.60;79.90;;;;;;4952672;28;20035;-67
2021/10/12 02:46:08;;;;;;;27.92;16.88;;;10.60;78.90;;;;;;4952415;28;20031;-66
2021/10/12 02:48:33;;;;;;;26.17;16.13;;;10.60;78.90;;;;;;4951420;28;20035;-67
2021/10/12 02:50:59;;;;;;;27.02;16.20;;;10.60;78.90;;;;;;4953890;28;20043;-66
2021/10/12 02:53:25;;;;;;;25.42;16.50;;;10.70;79.00;;;;;;4957659;28;20173;-67
2021/10/12 02:55:50;;;;;;;26.27;16.02;;;10.70;78.80;;;;;;4957983;28;20042;-66
2021/10/12 02:58:16;;;;;;;28.10;16.30;;;10.70;78.80;;;;;;4954625;28;20062;-67
2021/10/12 03:00:42;;;;;;;25.88;16.70;;;10.60;78.70;;;;;;4957459;28;20063;-67
2021/10/12 03:03:09;;;;;;;24.58;15.55;;;10.70;78.70;;;;;;4955048;28;21001;-66
2021/10/12 03:05:35;;;;;;;27.63;15.70;;;10.70;78.70;;;;;;4952363;28;20046;-66
2021/10/12 03:08:01;;;;;;;25.95;16.10;;;10.70;78.60;;;;;;4953444;28;20035;-66
2021/10/12 03:10:27;;;;;;;24.58;15.13;;;10.80;78.60;;;;;;4953556;28;20062;-66
2021/10/12 03:12:52;;;;;;;27.27;15.68;;;10.80;78.60;;;;;;4953102;28;20038;-67
2021/10/12 03:15:18;;;;;;;25.17;15.50;;;10.80;78.60;;;;;;4951672;28;20039;-67
2021/10/12 03:17:44;;;;;;;22.77;15.50;;;10.80;78.40;;;;;;4952837;28;20117;-67
2021/10/12 03:20:09;;;;;;;23.30;15.88;;;10.80;78.40;;;;;;4953508;28;20043;-65
2021/10/12 03:22:35;;;;;;;24.45;15.30;;;10.80;78.40;;;;;;4957708;28;20450;-67
2021/10/12 03:25:01;;;;;;;23.40;15.02;;;10.80;78.30;;;;;;4961753;28;20042;-67
2021/10/12 03:27:27;;;;;;;24.83;15.00;;;10.80;78.30;;;;;;4956641;28;20039;-67
2021/10/12 03:29:52;;;;;;;23.40;14.90;;;10.90;78.20;;;;;;4956728;28;20046;-67
2021/10/12 03:32:18;;;;;;;24.95;14.77;;;10.90;78.10;;;;;;4957950;28;20031;-67
2021/10/12 03:34:44;;;;;;;23.83;15.05;;;10.90;78.20;;;;;;4955194;28;20034;-66
2021/10/12 03:37:09;;;;;;;24.60;15.00;;;10.90;78.00;;;;;;4960151;28;20043;-67
2021/10/12 03:39:35;;;;;;;24.55;15.23;;;10.90;78.00;;;;;;4956075;28;20034;-67
2021/10/12 03:42:01;;;;;;;22.77;14.68;;;10.90;78.10;;;;;;4954933;28;20038;-67
2021/10/12 03:44:28;;;;;;;24.77;14.75;;;10.80;78.20;;;;;;4956093;28;21162;-67
2021/10/12 03:46:54;;;;;;;23.50;15.30;;;10.80;78.20;;;;;;4956813;28;20050;-67
2021/10/12 03:49:20;;;;;;;25.00;15.52;;;10.80;78.20;;;;;;4956240;28;20081;-65
2021/10/12 03:51:45;;;;;;;22.60;13.95;;;10.80;78.20;;;;;;4959723;28;20031;-67
2021/10/12 03:54:11;;;;;;;23.52;13.90;;;10.80;78.20;;;;;;4955321;28;20145;-67
2021/10/12 03:56:38;;;;;;;21.95;13.57;;;10.80;78.20;;;;;;4956215;28;20074;-67
2021/10/12 03:59:04;;;;;;;21.40;13.20;;;10.90;78.20;;;;;;4961436;28;20106;-67
2021/10/12 04:01:30;;;;;;;22.08;13.80;;;10.90;78.20;;;;;;4958146;28;20416;-67
2021/10/12 04:03:55;;;;;;;21.05;13.60;;;10.90;78.10;;;;;;4955692;28;20038;-66
2021/10/12 04:06:21;;;;;;;22.00;13.57;;;10.90;78.10;;;;;;4955970;28;20501;-66
2021/10/12 04:08:47;;;;;;;20.75;13.23;;;10.90;78.00;;;;;;4955210;28;20760;-66
2021/10/12 04:11:13;;;;;;;20.40;13.52;;;10.90;77.90;;;;;;4956323;28;20038;-67
2021/10/12 04:13:38;;;;;;;20.60;13.10;;;10.90;77.90;;;;;;4955585;28;20039;-66
2021/10/12 04:16:04;;;;;;;19.58;13.10;;;10.90;77.90;;;;;;4957995;28;20573;-66
2021/10/12 04:18:30;;;;;;;20.40;13.52;;;11.00;77.90;;;;;;4955457;28;20038;-67
2021/10/12 04:20:56;;;;;;;20.05;11.95;;;11.00;77.80;;;;;;4954714;28;20110;-64
2021/10/12 04:23:22;;;;;;;18.52;12.38;;;11.00;77.70;;;;;;4958180;28;20129;-66
2021/10/12 04:25:48;;;;;;;19.42;12.25;;;11.00;77.70;;;;;;4958500;28;20454;-67
2021/10/12 04:28:14;;;;;;;22.58;12.10;;;11.00;77.60;;;;;;4955837;28;20115;-67
2021/10/12 04:30:44;;;;;;;21.17;12.60;;;11.00;77.50;;;;;;4957834;28;20035;-68
2021/10/12 04:33:10;;;;;;;19.67;11.10;;;11.10;77.60;;;;;;4952406;28;20023;-65
2021/10/12 04:35:36;;;;;;;18.40;12.35;;;11.00;77.50;;;;;;4957804;28;20043;-67
2021/10/12 04:38:03;;;;;;;19.63;12.48;;;11.00;77.50;;;;;;4956446;28;20050;-67
2021/10/12 04:40:31;;;;;;;21.23;12.65;;;11.00;77.40;;;;;;4956173;28;20577;-67
2021/10/12 04:43:00;;;;;;;18.58;11.43;;;11.00;77.30;;;;;;4954486;28;20039;-67
2021/10/12 04:45:25;;;;;;;18.83;11.75;;;11.00;77.30;;;;;;4955468;28;20118;-67
2021/10/12 04:47:52;;;;;;;20.63;12.10;;;11.00;77.30;;;;;;4956165;28;20106;-67
2021/10/12 04:50:18;;;;;;;21.52;12.43;;;11.00;77.30;;;;;;4972494;28;20593;-67
2021/10/12 04:52:45;;;;;;;19.35;12.20;;;11.00;77.20;;;;;;4956568;28;20154;-67
2021/10/12 04:55:11;;;;;;;17.40;12.10;;;11.10;77.20;;;;;;4953216;28;20035;-66
2021/10/12 04:57:37;;;;;;;20.05;12.85;;;11.10;77.30;;;;;;4960611;28;20087;-67
2021/10/12 05:00:04;;;;;;;17.83;12.75;;;11.00;77.30;;;;;;4956620;28;20067;-67
2021/10/12 05:02:30;;;;;;;20.10;12.40;;;11.00;77.30;;;;;;4956592;28;20042;-67
2021/10/12 05:04:56;;;;;;;18.02;12.02;;;11.00;77.80;;;;;;4955821;28;20073;-67
2021/10/12 05:07:21;;;;;;;18.25;12.20;;;11.00;77.30;;;;;;4958225;28;20144;-67
2021/10/12 05:09:47;;;;;;;21.30;12.00;;;11.00;77.30;;;;;;4958513;28;20035;-67
2021/10/12 05:12:12;;;;;;;19.98;11.82;;;11.00;77.30;;;;;;4953682;28;20036;-66
2021/10/12 05:14:38;;;;;;;17.95;10.93;;;10.90;77.30;;;;;;4954831;28;20492;-67
2021/10/12 05:17:05;;;;;;;27.13;14.48;;;10.90;77.30;;;;;;4954301;28;20043;-67
2021/10/12 05:19:32;;;;;;;21.90;12.35;;;10.90;77.30;;;;;;4959495;28;20035;-67
2021/10/12 05:21:58;;;;;;;17.83;11.95;;;10.90;77.30;;;;;;4959477;28;20039;-67
2021/10/12 05:24:24;;;;;;;17.25;11.55;;;10.90;77.30;;;;;;4955854;28;20042;-67
2021/10/12 05:26:50;;;;;;;20.75;12.32;;;10.90;77.30;;;;;;4951436;28;20118;-67
2021/10/12 05:29:15;;;;;;;17.35;11.73;;;10.90;77.20;;;;;;4958162;28;20042;-66
2021/10/12 05:31:41;;;;;;;18.23;11.75;;;10.90;77.30;;;;;;4954241;28;20066;-66
2021/10/12 05:34:07;;;;;;;21.30;12.88;;;10.90;77.30;;;;;;4954065;28;20505;-67
2021/10/12 05:36:33;;;;;;;21.10;13.25;;;10.80;77.30;;;;;;4956166;28;20030;-67
2021/10/12 05:38:59;;;;;;;22.25;12.65;;;10.80;77.40;;;;;;4953954;28;20042;-65
2021/10/12 05:41:26;;;;;;;20.23;12.73;;;10.80;77.50;;;;;;4956990;28;20056;-67
2021/10/12 05:43:52;;;;;;;19.45;12.30;;;10.80;77.60;;;;;;4954169;28;20035;-67
2021/10/12 05:46:20;;;;;;;17.75;12.05;;;10.80;77.60;;;;;;4958106;28;20363;-66
2021/10/12 05:48:45;;;;;;;18.60;12.05;;;10.70;77.60;;;;;;4955302;28;20047;-67
2021/10/12 05:51:13;;;;;;;20.35;12.43;;;10.70;77.70;;;;;;4958850;28;20039;-67
2021/10/12 05:53:48;;;;;;;22.73;13.52;;;10.70;77.90;;;;;;4959039;28;20031;-67
2021/10/12 05:58:48;;;;;;;19.17;12.40;;;10.80;78.00;;;;;;4956624;28;20093;-67
2021/10/12 06:01:15;;;;;;;22.80;13.27;;;10.70;77.90;;;;;;4958253;28;20039;-67
2021/10/12 06:03:41;;;;;;;18.98;12.70;;;10.80;77.90;;;;;;4958011;28;20072;-67
2021/10/12 06:06:07;;;;;;;20.10;12.68;;;10.70;77.90;;;;;;4957532;28;20035;-67
2021/10/12 06:08:33;;;;;;;19.02;11.93;;;10.80;78.00;;;;;;4959751;28;20422;-67
2021/10/12 06:11:04;;;;;;;20.40;13.02;;;10.80;78.00;;;;;;4954294;28;20035;-67
2021/10/12 06:13:31;;;;;;;21.50;13.70;;;10.70;78.00;;;;;;4955577;28;20058;-66
2021/10/12 06:15:57;;;;;;;20.63;13.25;;;10.80;78.00;;;;;;4955859;28;20045;-66
2021/10/12 06:18:24;;;;;;;18.17;11.95;;;10.80;78.90;;;;;;4956825;28;20597;-69
2021/10/12 06:20:50;;;;;;;18.70;11.43;;;10.80;78.00;;;;;;4956725;28;20063;-67
2021/10/12 06:23:16;;;;;;;20.67;11.95;;;10.80;78.00;;;;;;4956670;28;20529;-67
2021/10/12 06:25:43;;;;;;;20.38;11.88;;;10.80;78.00;;;;;;4956403;28;20110;-67
2021/10/12 06:28:09;;;;;;;19.83;12.02;;;10.90;78.00;;;;;;4953688;28;20032;-67
2021/10/12 06:30:35;;;;;;;17.88;11.25;;;10.90;78.00;;;;;;4953614;28;20034;-67
2021/10/12 06:33:01;;;;;;;18.42;12.80;;;10.90;77.90;;;;;;4969884;28;20035;-67
2021/10/12 06:35:29;;;;;;;19.50;11.88;;;10.90;77.90;;;;;;4960166;28;20500;-66
2021/10/12 06:37:55;;;;;;;19.65;12.00;;;10.90;77.80;;;;;;4955504;28;20471;-67
2021/10/12 06:40:21;;;;;;;19.83;12.63;;;11.00;77.90;;;;;;4955913;28;20035;-67
2021/10/12 06:42:47;;;;;;;19.00;11.57;;;11.00;77.90;;;;;;4954668;28;20415;-67
2021/10/12 06:45:16;;;;;;;21.45;12.20;;;11.00;77.90;;;;;;4953078;28;20039;-67
2021/10/12 06:47:42;;;;;;;17.48;11.55;;;11.00;78.00;;;;;;4953030;28;20457;-66
2021/10/12 06:50:08;;;;;;;17.58;11.93;;;11.00;78.10;;;;;;4951885;28;20067;-67
2021/10/12 06:52:33;;;;;;;18.85;11.65;;;11.00;78.20;;;;;;4956891;28;20490;-67
2021/10/12 06:54:59;;;;;;;22.17;12.65;;;11.00;78.30;;;;;;4955550;28;20034;-67
2021/10/12 06:57:25;;;;;;;20.83;11.57;;;11.00;78.40;;;;;;4954757;28;20043;-67
2021/10/12 06:59:50;;;;;;;19.50;11.25;;;11.00;78.40;;;;;;4954594;28;20035;-67
2021/10/12 07:02:16;;;;;;;17.80;11.27;;;11.00;78.40;;;;;;4955876;28;20458;-66
2021/10/12 07:04:41;;;;;;;21.17;12.57;;;11.00;78.40;;;;;;4955131;28;20069;-67
2021/10/12 07:07:07;;;;;;;19.50;11.30;;;11.10;78.50;;;;;;4956251;28;20291;-67
2021/10/12 07:09:33;;;;;;;19.67;12.45;;;11.10;78.50;;;;;;4955804;28;20055;-67
2021/10/12 07:11:58;;;;;;;18.63;12.45;;;11.10;78.60;;;;;;4953726;28;20047;-66
2021/10/12 07:14:24;;;;;;;18.73;12.00;;;11.10;78.60;;;;;;4953404;28;20402;-66
2021/10/12 07:16:50;;;;;;;21.27;14.27;;;11.10;78.60;;;;;;4951085;28;20054;-66
2021/10/12 07:19:15;;;;;;;19.33;11.88;;;11.20;78.70;;;;;;4954366;28;20046;-66
2021/10/12 07:21:41;;;;;;;18.80;11.75;;;11.10;78.60;;;;;;4956435;28;20442;-66
2021/10/12 07:24:07;;;;;;;21.45;13.57;;;11.20;78.70;;;;;;4954956;28;20035;-66
2021/10/12 07:26:32;;;;;;;19.13;13.30;;;11.20;78.70;;;;;;4954645;28;20051;-66
2021/10/12 07:28:59;;;;;;;18.02;12.48;;;11.20;78.70;;;;;;4956402;28;20431;-66
2021/10/12 07:31:25;;;;;;;19.80;12.88;;;11.30;78.90;;;;;;4954845;28;20146;-67
2021/10/12 07:33:50;;;;;;;17.15;12.13;;;11.30;78.80;;;;;;4950956;28;20023;-66
2021/10/12 07:36:16;;;;;;;18.55;13.20;;;11.30;78.90;;;;;;4955219;28;20037;-66
2021/10/12 07:38:42;;;;;;;19.33;12.57;;;11.30;79.00;;;;;;4954099;28;20881;-66
2021/10/12 07:41:08;;;;;;;19.17;11.95;;;11.30;78.90;;;;;;4954850;28;20062;-66
2021/10/12 07:43:34;;;;;;;16.67;11.93;;;11.30;78.90;;;;;;4955456;28;20035;-66
2021/10/12 07:46:00;;;;;;;19.35;12.15;;;11.30;79.00;;;;;;4953684;28;20585;-65
2021/10/12 07:48:25;;;;;;;20.40;12.90;;;11.30;79.10;;;;;;4952816;28;20049;-66
2021/10/12 07:50:51;;;;;;;20.65;12.55;;;11.30;79.00;;;;;;4955467;28;20042;-67
2021/10/12 07:53:17;;;;;;;19.13;12.35;;;11.30;79.10;;;;;;4956369;28;20113;-67
2021/10/12 07:55:47;;;;;;;18.48;11.75;;;11.20;79.20;;;;;;4953372;28;20514;-66
2021/10/12 07:58:13;;;;;;;15.70;11.30;;;11.20;79.40;;;;;;4955302;28;20122;-66
2021/10/12 08:00:38;;;;;;;21.70;13.05;;;11.20;79.70;;;;;;4955734;28;20130;-66
2021/10/12 08:03:05;;;;;;;18.85;11.85;;;11.20;79.80;;;;;;4949987;28;20137;-66
2021/10/12 08:05:32;;;;;;;19.45;10.95;;;11.20;80.00;;;;;;4955060;28;20039;-67
2021/10/12 08:07:58;;;;;;;17.17;11.27;;;11.20;80.00;;;;;;4954686;28;20035;-65
2021/10/12 08:10:25;;;;;;;16.95;11.35;;;11.30;80.00;;;;;;4956865;28;20136;-65
2021/10/12 08:13:03;;;;;;;16.02;10.98;;;11.30;80.00;;;;;;4955796;28;20542;-66
2021/10/12 08:15:29;;;;;;;17.70;11.63;;;11.30;80.00;;;;;;4957244;28;20038;-66
2021/10/12 08:17:55;;;;;;;19.30;10.75;;;11.30;80.00;;;;;;4957177;28;20135;-66
2021/10/12 08:20:20;;;;;;;16.08;10.82;;;11.40;80.00;;;;;;4958077;28;20039;-67
2021/10/12 08:22:46;;;;;;;17.75;11.85;;;11.40;80.10;;;;;;4957434;28;20490;-66
2021/10/12 08:25:12;;;;;;;18.23;12.20;;;11.40;80.10;;;;;;4957768;28;20782;-66
2021/10/12 08:27:39;;;;;;;17.60;11.98;;;11.40;80.20;;;;;;4958852;28;20529;-66
2021/10/12 08:30:07;;;;;;;21.38;12.43;;;11.40;80.30;;;;;;4956892;28;20059;-66
2021/10/12 08:32:33;;;;;;;18.65;11.57;;;11.40;80.40;;;;;;4958813;28;20062;-66
2021/10/12 08:34:59;;;;;;;20.02;12.35;;;11.50;80.30;;;;;;4956596;28;20522;-67
2021/10/12 08:37:25;;;;;;;18.00;11.18;;;11.50;80.30;;;;;;4962319;28;20043;-66
2021/10/12 08:39:51;;;;;;;18.92;11.82;;;11.60;80.50;;;;;;4959985;28;20039;-66
2021/10/12 08:42:26;;;;;;;19.90;11.45;;;11.60;80.30;;;;;;4970558;28;20124;-66
2021/10/12 08:44:55;;;;;;;18.23;11.50;;;11.60;80.40;;;;;;4958102;28;20070;-66
2021/10/12 08:47:24;;;;;;;19.90;11.88;;;11.60;80.20;;;;;;4959629;28;20629;-66
2021/10/12 08:49:51;;;;;;;18.70;11.82;;;11.60;80.40;;;;;;4957101;28;20035;-66
2021/10/12 08:52:17;;;;;;;18.20;11.75;;;11.60;80.40;;;;;;4960571;28;20038;-66
2021/10/12 08:54:43;;;;;;;18.08;10.90;;;11.60;80.50;;;;;;4958400;28;20055;-67
2021/10/12 08:57:09;;;;;;;17.85;10.68;;;11.70;80.50;;;;;;4958522;28;20039;-66
2021/10/12 08:59:34;;;;;;;17.60;11.27;;;11.70;80.30;;;;;;4960769;28;20039;-67
2021/10/12 09:02:03;;;;;;;19.73;11.93;;;11.80;80.30;;;;;;4959804;28;20035;-67
2021/10/12 09:04:37;;;;;;;20.00;11.45;;;11.80;80.20;;;;;;4959766;28;20046;-67
2021/10/12 09:07:03;;;;;;;20.67;12.33;;;11.80;80.00;;;;;;4963309;28;20051;-67
2021/10/12 09:09:35;;;;;;;19.60;11.48;;;11.90;79.60;;;;;;4958050;28;20039;-67
2021/10/12 09:12:02;;;;;;;15.40;9.85;;;11.90;80.20;;;;;;4957869;28;20049;-67
2021/10/12 09:14:28;;;;;;;16.45;10.75;;;11.90;79.10;;;;;;4955293;28;20126;-67
2021/10/12 09:17:03;;;;;;;17.42;10.55;;;11.90;79.10;;;;;;4959772;28;20038;-67
2021/10/12 09:19:32;;;;;;;15.60;10.93;;;11.90;79.20;;;;;;4957255;28;20035;-68
2021/10/12 09:22:05;;;;;;;18.67;11.68;;;11.90;79.20;;;;;;4957671;28;20062;-67
2021/10/12 09:24:37;;;;;;;18.65;12.23;;;11.90;79.30;;;;;;4954172;28;20042;-67
2021/10/12 09:27:05;;;;;;;19.20;12.18;;;11.90;79.20;;;;;;4956073;28;21050;-67
2021/10/12 09:32:10;;;;;;;16.20;10.50;;;11.90;79.10;;;;;;4961300;28;20035;-67
2021/10/12 09:34:37;;;;;;;15.35;10.20;;;12.00;78.90;;;;;;4960246;28;20043;-66
2021/10/12 09:37:04;;;;;;;20.00;11.30;;;12.00;78.60;;;;;;4957773;28;20049;-67
2021/10/12 09:39:48;;;;;;;16.25;11.00;;;11.90;78.40;;;;;;4959079;28;20510;-67
2021/10/12 09:42:16;;;;;;;16.45;10.10;;;12.00;78.70;;;;;;4958915;28;20479;-67
2021/10/12 09:44:50;;;;;;;14.15;10.20;;;11.90;78.40;;;;;;4957622;28;20422;-67
2021/10/12 09:47:16;;;;;;;17.73;9.63;;;12.00;78.40;;;;;;4959828;28;20043;-67
2021/10/12 09:49:46;;;;;;;15.23;9.45;;;12.00;78.40;;;;;;4959988;28;20030;-67
2021/10/12 09:52:14;;;;;;;16.20;9.95;;;12.00;78.10;;;;;;4957506;28;20330;-68
2021/10/12 09:54:49;;;;;;;11.40;8.40;;;12.00;78.00;;;;;;4958785;28;20138;-67
2021/10/12 09:57:19;;;;;;;14.55;7.68;;;12.10;78.00;;;;;;4959619;28;20419;-67
2021/10/12 09:59:45;;;;;;;11.48;7.32;;;12.10;77.60;;;;;;4959281;28;20049;-67
2021/10/12 10:02:15;;;;;;;10.35;6.57;;;12.20;77.50;;;;;;4958497;28;20043;-66
2021/10/12 10:04:42;;;;;;;11.23;7.75;;;12.20;77.00;;;;;;4964550;28;20046;-67
2021/10/12 10:07:15;;;;;;;11.10;7.25;;;12.20;76.20;;;;;;4956974;28;20046;-67
2021/10/12 10:09:43;;;;;;;14.70;9.80;;;12.20;76.10;;;;;;4958347;28;20549;-66
2021/10/12 10:12:09;;;;;;;14.85;8.80;;;12.20;76.10;;;;;;4959494;28;20514;-66
2021/10/12 10:14:36;;;;;;;14.80;9.32;;;12.10;75.80;;;;;;4958566;28;20038;-66
2021/10/12 10:17:03;;;;;;;14.68;8.30;;;12.10;75.50;;;;;;4958386;28;20042;-66
2021/10/12 10:19:35;;;;;;;15.10;9.50;;;12.10;75.60;;;;;;4960326;28;20085;-67
2021/10/12 10:22:02;;;;;;;12.23;8.38;;;12.00;75.70;;;;;;4959733;28;20031;-66
2021/10/12 10:24:30;;;;;;;14.35;8.70;;;11.90;76.00;;;;;;4958732;28;20039;-67
2021/10/12 10:26:56;;;;;;;18.08;7.93;;;11.90;76.20;;;;;;4959095;28;20502;-67
2021/10/12 10:29:36;;;;;;;10.98;7.70;;;11.80;76.30;;;;;;4959138;28;20506;-67
2021/10/12 10:32:11;;;;;;;12.20;7.72;;;11.80;76.80;;;;;;4958811;28;20094;-67
2021/10/12 10:34:38;;;;;;;;;;;11.70;77.00;;;;;;4957568;28;20570;-67
2021/10/12 10:37:16;;;;;;;11.52;7.45;;;11.70;77.40;;;;;;4959568;28;19953;-67
2021/10/12 10:39:46;;;;;;;10.90;8.10;;;11.70;77.60;;;;;;4958437;28;20035;-66
2021/10/12 10:42:27;;;;;;;14.73;9.40;;;11.50;77.90;;;;;;4959082;28;20101;-66
2021/10/12 10:45:05;;;;;;;14.85;9.07;;;11.50;78.90;;;;;;4958314;28;20199;-66
2021/10/12 10:47:47;;;;;;;10.27;7.43;;;11.50;79.00;;;;;;4959187;28;20094;-67
2021/10/12 10:50:17;;;;;;;12.85;8.02;;;11.40;79.40;;;;;;4958867;28;20056;-66
2021/10/12 10:52:48;;;;;;;11.57;8.05;;;11.40;79.10;;;;;;4959988;28;20118;-66
2021/10/12 10:55:34;;;;;;;11.50;7.60;;;11.40;79.10;;;;;;4959239;28;20043;-66
2021/10/12 10:58:18;;;;;;;9.55;6.45;;;11.40;79.50;;;;;;4959852;28;20534;-66
2021/10/12 11:00:51;;;;;;;10.18;6.68;;;11.40;79.50;;;;;;4957938;28;20490;-66
2021/10/12 11:03:29;;;;;;;8.57;6.30;;;11.50;79.40;;;;;;4958358;28;20035;-66
2021/10/12 11:05:56;;;;;;;11.45;6.47;;;11.50;79.40;;;;;;4959552;28;20031;-67
2021/10/12 11:08:29;;;;;;;11.68;7.55;;;11.50;79.30;;;;;;4958830;28;20027;-66
2021/10/12 11:11:03;;;;;;;10.93;6.90;;;11.60;79.40;;;;;;4955698;28;20437;-66
2021/10/12 11:13:36;;;;;;;10.48;8.13;;;11.60;79.40;;;;;;4957480;28;20046;-64
2021/10/12 11:16:20;;;;;;;8.00;6.30;;;11.70;79.60;;;;;;4954704;28;20031;-66
2021/10/12 11:18:58;;;;;;;10.88;6.93;;;11.70;79.30;;;;;;4958144;28;20039;-66
2021/10/12 11:21:24;;;;;;;13.10;7.40;;;11.80;79.10;;;;;;4955054;28;20460;-67
2021/10/12 11:23:54;;;;;;;10.48;7.13;;;11.90;79.20;;;;;;4956684;28;20027;-67
2021/10/12 11:26:21;;;;;;;13.57;7.88;;;11.90;79.10;;;;;;4958414;28;20069;-67
2021/10/12 11:28:52;;;;;;;11.10;7.82;;;11.90;78.90;;;;;;4958075;28;20031;-67
2021/10/12 11:31:23;;;;;;;12.63;7.50;;;12.00;79.10;;;;;;4957925;28;20034;-66
2021/10/12 11:33:57;;;;;;;9.98;7.68;;;12.00;79.10;;;;;;4955949;28;20035;-67
2021/10/12 11:36:25;;;;;;;12.68;9.43;;;12.00;79.20;;;;;;4955477;28;20465;-66
2021/10/12 11:38:56;;;;;;;11.85;7.45;;;12.10;79.10;;;;;;4958663;28;20046;-66
2021/10/12 11:41:22;;;;;;;8.60;6.47;;;12.10;78.80;;;;;;4957924;28;20031;-66
2021/10/12 11:43:49;;;;;;;8.07;5.88;;;12.20;78.60;;;;;;4961072;28;20485;-67
2021/10/12 11:46:20;;;;;;;9.20;5.60;;;12.20;78.20;;;;;;4960029;28;20046;-66
2021/10/12 11:48:46;;;;;;;7.80;5.25;;;12.20;78.00;;;;;;4961868;28;20041;-67
2021/10/12 11:51:23;;;;;;;9.10;5.65;;;12.20;77.70;;;;;;4959476;28;20106;-67
2021/10/12 11:53:50;;;;;;;11.70;5.70;;;12.30;76.70;;;;;;4961121;28;20031;-67
2021/10/12 11:56:18;;;;;;;8.45;5.80;;;12.30;76.60;;;;;;4961963;28;20039;-67
2021/10/12 11:58:44;;;;;;;12.18;8.88;;;12.30;76.60;;;;;;4962416;28;20022;-66
2021/10/12 12:01:14;;;;;;;9.95;6.47;;;12.30;76.60;;;;;;4962066;28;20502;-67
2021/10/12 12:03:41;;;;;;;11.30;7.55;;;12.40;77.50;;;;;;4962548;28;20027;-67
2021/10/12 12:06:07;;;;;;;9.38;5.35;;;12.40;76.80;;;;;;4962171;28;20034;-67
2021/10/12 12:08:35;;;;;;;8.75;6.25;;;12.40;77.30;;;;;;4961547;28;20041;-67
2021/10/12 12:11:03;;;;;;;7.97;5.45;;;12.40;76.20;;;;;;4962687;28;20035;-67
2021/10/12 12:13:30;;;;;;;8.73;5.35;;;12.50;76.10;;;;;;4962045;28;20043;-64
2021/10/12 12:15:57;;;;;;;8.15;5.57;;;12.50;76.00;;;;;;4961446;28;20098;-67
2021/10/12 12:18:24;;;;;;;8.57;5.40;;;12.50;76.00;;;;;;4961936;28;20094;-67
2021/10/12 12:20:52;;;;;;;16.13;11.23;;;12.60;75.70;;;;;;4961297;28;20039;-67
2021/10/12 12:23:37;;;;;;;12.25;7.55;;;12.60;75.40;;;;;;4962848;28;20035;-67
2021/10/12 12:26:05;;;;;;;11.25;7.10;;;12.60;74.70;;;;;;4960650;28;20525;-66
2021/10/12 12:28:31;;;;;;;11.45;6.90;;;12.70;75.30;;;;;;4961631;28;20039;-67
2021/10/12 12:30:57;;;;;;;6.82;4.63;;;12.70;75.40;;;;;;4961589;28;20114;-67
2021/10/12 12:33:24;;;;;;;7.57;4.45;;;12.70;75.30;;;;;;4960728;28;20043;-66
2021/10/12 12:35:52;;;;;;;7.63;4.20;;;12.80;75.30;;;;;;4961364;28;20062;-67